Time;durP1;ratioP1;P1;durP2;ratioP2;P2;SDS_P1;SDS_P2;PMS_P1;PMS_P2;Temp;Humidity;BMP_temperature;BMP_pressure;BME280_temperature;BME280_humidity;BME280_pressure;Samples;Min_cycle;Max_cycle;Signal;HPM_P1;HPM_P2
2021/12/13 00:02:25;;;;;;;44.05;20.35;;;;;;;9.20;100.00;102548.66;5219466;28;20021;-73
2021/12/13 00:04:59;;;;;;;46.33;20.58;;;;;;;9.19;100.00;102546.97;5220356;28;20033;-74
2021/12/13 00:07:33;;;;;;;44.08;20.42;;;;;;;9.19;100.00;102549.63;5223778;28;20052;-74
2021/12/13 00:10:22;;;;;;;46.08;20.35;;;;;;;9.22;100.00;102550.25;5224717;28;20032;-73
2021/12/13 00:13:01;;;;;;;50.80;20.75;;;;;;;9.20;100.00;102551.34;5224674;28;20048;-74
2021/12/13 00:15:37;;;;;;;53.80;21.48;;;;;;;9.20;100.00;102554.03;5223151;28;20021;-74
2021/12/13 00:18:14;;;;;;;47.20;21.13;;;;;;;9.19;100.00;102545.13;5229069;28;20514;-73
2021/12/13 00:20:50;;;;;;;52.85;21.27;;;;;;;9.18;100.00;102546.09;5228192;28;20025;-73
2021/12/13 00:23:28;;;;;;;54.58;21.30;;;;;;;9.18;100.00;102551.44;5224871;28;20033;-73
2021/12/13 00:26:02;;;;;;;49.92;21.33;;;;;;;9.19;100.00;102553.16;5224140;28;20025;-73
2021/12/13 00:28:37;;;;;;;50.25;21.45;;;;;;;9.19;100.00;102553.16;5224483;28;20424;-74
2021/12/13 00:31:12;;;;;;;55.53;21.80;;;;;;;9.20;100.00;102544.16;5224610;28;20394;-73
2021/12/13 00:34:03;;;;;;;57.60;22.42;;;;;;;9.20;100.00;102551.34;5224158;28;20024;-73
2021/12/13 00:36:40;;;;;;;60.15;23.20;;;;;;;9.18;100.00;102553.25;5220593;28;20057;-73
2021/12/13 00:39:18;;;;;;;52.03;21.83;;;;;;;9.17;100.00;102551.56;5224237;28;20064;-73
2021/12/13 00:41:50;;;;;;;56.38;22.80;;;;;;;9.15;100.00;102553.50;5223812;28;20025;-74
2021/12/13 00:44:29;;;;;;;57.13;21.58;;;;;;;9.16;100.00;102547.19;5223697;28;20430;-73
2021/12/13 00:47:06;;;;;;;60.17;22.95;;;;;;;9.19;100.00;102558.53;5224010;28;20404;-73
2021/12/13 00:49:41;;;;;;;50.28;22.17;;;;;;;9.16;100.00;102560.56;5222864;28;20025;-74
2021/12/13 00:52:15;;;;;;;54.83;21.20;;;;;;;9.15;100.00;102559.72;5223983;28;20078;-73
2021/12/13 00:54:47;;;;;;;59.50;24.23;;;;;;;9.16;100.00;102560.56;5223382;28;20032;-73
2021/12/13 00:57:37;;;;;;;53.00;22.75;;;;;;;9.13;100.00;102560.78;5224539;28;20056;-73
2021/12/13 01:00:13;;;;;;;53.65;22.90;;;;;;;9.15;100.00;102559.72;5223828;28;20029;-73
2021/12/13 01:02:50;;;;;;;53.42;22.40;;;;;;;9.14;100.00;102554.50;5222298;28;20028;-73
2021/12/13 01:05:24;;;;;;;53.70;21.77;;;;;;;9.12;100.00;102567.13;5223504;28;20471;-73
2021/12/13 01:08:08;;;;;;;56.42;24.05;;;;;;;9.10;100.00;102564.56;5223676;28;20083;-73
2021/12/13 01:10:39;;;;;;;57.45;21.95;;;;;;;9.10;100.00;102567.25;5223724;28;20485;-73
2021/12/13 01:13:19;;;;;;;54.25;22.35;;;;;;;9.08;100.00;102561.97;5222904;28;20051;-73
2021/12/13 01:15:59;;;;;;;51.58;22.85;;;;;;;9.07;100.00;102560.28;5223077;28;20024;-73
2021/12/13 01:18:59;;;;;;;61.50;24.48;;;;;;;9.03;100.00;102574.00;5222458;28;20037;-73
2021/12/13 01:21:40;;;;;;;55.08;23.77;;;;;;;9.03;100.00;102572.19;5223161;28;20048;-73
2021/12/13 01:24:15;;;;;;;64.32;23.80;;;;;;;9.00;100.00;102560.88;5223115;28;20096;-73
2021/12/13 01:26:52;;;;;;;64.00;23.80;;;;;;;8.99;100.00;102562.69;5223999;28;20029;-73
2021/12/13 01:29:27;;;;;;;61.20;23.50;;;;;;;9.01;100.00;102568.78;5223409;28;20027;-74
2021/12/13 01:32:04;;;;;;;49.38;21.70;;;;;;;9.01;100.00;102567.91;5222737;28;20028;-74
2021/12/13 01:34:37;;;;;;;64.53;24.35;;;;;;;8.99;100.00;102578.75;5222707;28;20393;-73
2021/12/13 01:37:14;;;;;;;55.85;23.20;;;;;;;8.98;100.00;102574.34;5219702;28;20025;-73
2021/12/13 01:39:50;;;;;;;51.55;22.13;;;;;;;8.97;100.00;102571.78;5223085;28;20489;-73
2021/12/13 01:42:25;;;;;;;55.78;24.02;;;;;;;8.97;100.00;102574.47;5209572;28;20124;-73
2021/12/13 01:45:00;;;;;;;58.35;22.98;;;;;;;8.96;100.00;102576.28;5222764;28;20044;-73
2021/12/13 01:47:41;;;;;;;57.10;23.42;;;;;;;8.95;100.00;102571.91;5223119;28;20025;-73
2021/12/13 01:50:16;;;;;;;50.05;22.20;;;;;;;8.96;100.00;102572.75;5222917;28;20096;-73
2021/12/13 01:52:50;;;;;;;53.13;22.17;;;;;;;8.95;100.00;102574.59;5222643;28;20028;-73
2021/12/13 01:55:32;;;;;;;51.13;21.90;;;;;;;8.95;100.00;102563.03;5221346;28;20529;-74
2021/12/13 02:01:10;;;;;;;49.45;20.27;;;;;;;8.96;100.00;102567.41;5222289;28;20056;-73
2021/12/13 02:03:47;;;;;;;54.33;21.67;;;;;;;8.98;100.00;102565.47;5211320;28;20033;-73
2021/12/13 02:06:27;;;;;;;53.65;21.90;;;;;;;8.96;100.00;102567.41;5222662;28;20221;-73
2021/12/13 02:09:03;;;;;;;48.67;20.80;;;;;;;8.94;100.00;102570.22;5223275;28;20028;-73
2021/12/13 02:11:35;;;;;;;52.45;21.35;;;;;;;8.93;100.00;102565.81;5209265;28;20104;-73
2021/12/13 02:14:11;;;;;;;49.72;20.63;;;;;;;8.95;100.00;102573.75;5211770;28;20027;-73
2021/12/13 02:16:59;;;;;;;44.33;19.88;;;;;;;8.96;100.00;102578.13;5222775;28;20032;-73
2021/12/13 02:19:37;;;;;;;48.28;20.85;;;;;;;8.96;100.00;102575.44;5222487;28;20032;-73
2021/12/13 02:22:20;;;;;;;49.47;22.88;;;;;;;8.95;100.00;102568.38;5222228;28;20115;-73
2021/12/13 02:24:52;;;;;;;45.47;19.38;;;;;;;8.95;100.00;102574.59;5221162;28;20057;-73
2021/12/13 02:27:26;;;;;;;46.75;20.33;;;;;;;8.96;100.00;102568.25;5221284;28;20021;-73
2021/12/13 02:30:01;;;;;;;46.60;19.80;;;;;;;8.95;100.00;102566.56;5221604;28;20378;-73
2021/12/13 02:32:35;;;;;;;48.42;19.48;;;;;;;8.91;100.00;102575.78;5222147;28;20118;-73
2021/12/13 02:35:07;;;;;;;46.00;19.58;;;;;;;8.94;100.00;102574.72;5222058;28;20036;-73
2021/12/13 02:37:41;;;;;;;42.08;17.40;;;;;;;8.97;100.00;102583.34;5221561;28;20116;-73
2021/12/13 02:40:14;;;;;;;43.53;19.25;;;;;;;8.95;100.00;102585.31;5222137;28;20021;-73
2021/12/13 02:43:06;;;;;;;42.60;17.90;;;;;;;8.94;100.00;102588.94;5222243;28;20029;-73
2021/12/13 02:45:43;;;;;;;48.00;20.77;;;;;;;8.92;100.00;102581.97;5221919;28;20493;-73
2021/12/13 02:48:20;;;;;;;39.85;17.50;;;;;;;8.95;100.00;102584.44;5222129;28;20024;-73
2021/12/13 02:50:57;;;;;;;46.60;18.85;;;;;;;8.96;100.00;102581.66;5222070;28;20028;-73
2021/12/13 02:53:37;;;;;;;43.78;18.35;;;;;;;8.96;100.00;102576.28;5221893;28;20339;-73
2021/12/13 02:56:09;;;;;;;44.17;17.40;;;;;;;8.96;100.00;102584.31;5221521;28;20059;-73
2021/12/13 02:58:54;;;;;;;40.35;16.92;;;;;;;8.94;100.00;102586.28;5209991;28;20021;-73
2021/12/13 03:01:33;;;;;;;43.30;16.75;;;;;;;8.91;100.00;102585.63;5221956;28;20519;-73
2021/12/13 03:04:08;;;;;;;42.00;18.63;;;;;;;8.92;100.00;102590.00;5220684;28;20111;-73
2021/12/13 03:06:45;;;;;;;42.53;16.45;;;;;;;8.90;100.00;102583.94;5204644;28;20063;-73
2021/12/13 03:09:21;;;;;;;41.10;17.17;;;;;;;8.91;100.00;102589.16;5222064;28;20456;-73
2021/12/13 03:11:53;;;;;;;42.72;16.90;;;;;;;8.88;100.00;102586.69;5221713;28;20021;-73
2021/12/13 03:14:29;;;;;;;36.60;16.50;;;;;;;8.86;100.00;102585.13;5208436;28;20469;-73
2021/12/13 03:17:00;;;;;;;37.42;16.02;;;;;;;8.85;100.00;102589.63;5221702;28;20021;-73
2021/12/13 03:19:40;;;;;;;45.17;17.98;;;;;;;8.85;100.00;102592.28;5221658;28;20039;-73
2021/12/13 03:22:20;;;;;;;38.75;16.27;;;;;;;8.82;100.00;102596.03;5221456;28;20032;-73
2021/12/13 03:25:14;;;;;;;40.13;17.80;;;;;;;8.80;100.00;102592.63;5221649;28;20107;-73
2021/12/13 03:28:01;;;;;;;37.28;16.40;;;;;;;8.80;100.00;102589.97;5221801;28;20100;-73
2021/12/13 03:30:39;;;;;;;37.47;15.63;;;;;;;8.82;100.00;102595.19;5219660;28;20036;-73
2021/12/13 03:33:13;;;;;;;38.08;14.60;;;;;;;8.81;100.00;102598.84;5220668;28;20029;-74
2021/12/13 03:35:50;;;;;;;35.40;13.80;;;;;;;8.79;100.00;102590.94;5208926;28;20108;-73
2021/12/13 03:38:30;;;;;;;39.03;15.63;;;;;;;8.79;100.00;102588.25;5220473;28;20048;-73
2021/12/13 03:41:05;;;;;;;36.35;16.27;;;;;;;8.80;100.00;102595.31;5220414;28;20056;-73
2021/12/13 03:43:45;;;;;;;39.38;15.38;;;;;;;8.75;100.00;102601.97;5225688;28;20507;-73
2021/12/13 03:46:19;;;;;;;40.15;15.98;;;;;;;8.76;100.00;102603.66;5225769;28;20101;-73
2021/12/13 03:48:52;;;;;;;40.20;16.00;;;;;;;8.75;100.00;102610.00;5226412;28;20477;-74
2021/12/13 03:51:28;;;;;;;32.67;14.40;;;;;;;8.74;100.00;102598.44;5225202;28;20017;-73
2021/12/13 03:54:01;;;;;;;34.50;15.82;;;;;;;8.77;100.00;102600.88;5215850;28;20032;-73
2021/12/13 03:56:37;;;;;;;34.88;14.35;;;;;;;8.78;100.00;102596.38;5222462;28;20041;-73
2021/12/13 03:59:13;;;;;;;35.17;15.23;;;;;;;8.81;100.00;102604.19;5225668;28;20492;-74
2021/12/13 04:01:50;;;;;;;33.30;14.25;;;;;;;8.83;100.00;102596.88;5224809;28;20025;-73
2021/12/13 04:04:26;;;;;;;39.22;15.43;;;;;;;8.81;100.00;102605.03;5224605;28;20025;-73
2021/12/13 04:07:05;;;;;;;32.78;15.30;;;;;;;8.80;100.00;102605.16;5225214;28;20025;-74
2021/12/13 04:09:37;;;;;;;30.40;14.20;;;;;;;8.81;100.00;102602.38;5223909;28;20516;-73
2021/12/13 04:12:08;;;;;;;30.00;12.90;;;;;;;8.81;100.00;102590.81;5225482;28;20516;-73
2021/12/13 04:14:43;;;;;;;31.00;14.02;;;;;;;8.82;100.00;102598.72;5214125;28;20025;-73
2021/12/13 04:17:23;;;;;;;36.33;15.05;;;;;;;8.79;100.00;102590.94;5224683;28;20142;-74
2021/12/13 04:19:57;;;;;;;29.05;12.43;;;;;;;8.81;100.00;102582.78;5225154;28;20021;-73
2021/12/13 04:22:34;;;;;;;33.17;13.48;;;;;;;8.79;100.00;102590.06;5224699;28;20028;-73
2021/12/13 04:25:11;;;;;;;32.20;13.75;;;;;;;8.80;100.00;102594.47;5222999;28;20520;-73
2021/12/13 04:27:46;;;;;;;29.92;12.75;;;;;;;8.80;100.00;102595.31;5223672;28;20392;-73
2021/12/13 04:30:24;;;;;;;28.48;12.93;;;;;;;8.78;100.00;102602.56;5224654;28;20182;-73
2021/12/13 04:33:01;;;;;;;33.35;13.88;;;;;;;8.78;100.00;102602.56;5224692;28;20285;-73
2021/12/13 04:35:32;;;;;;;33.25;13.43;;;;;;;8.79;100.00;102604.31;5224040;28;20034;-73
2021/12/13 04:38:06;;;;;;;32.08;13.57;;;;;;;8.84;100.00;102603.13;5225140;28;20380;-73
2021/12/13 04:40:39;;;;;;;31.52;13.68;;;;;;;8.81;100.00;102593.47;5223397;28;20048;-73
2021/12/13 04:43:14;;;;;;;34.00;13.77;;;;;;;8.80;100.00;102595.31;5224205;28;20128;-73
2021/12/13 04:45:49;;;;;;;31.83;11.70;;;;;;;8.80;100.00;102587.28;5224377;28;20012;-73
2021/12/13 04:48:23;;;;;;;27.55;12.77;;;;;;;8.81;100.00;102591.66;5224427;28;20032;-73
2021/12/13 04:51:01;;;;;;;29.35;12.77;;;;;;;8.85;100.00;102603.00;5223087;28;20029;-73
2021/12/13 04:53:39;;;;;;;29.52;13.23;;;;;;;8.80;100.00;102597.97;5223115;28;20025;-73
2021/12/13 04:56:14;;;;;;;29.73;12.63;;;;;;;8.82;100.00;102596.03;5223703;28;20029;-73
2021/12/13 04:58:46;;;;;;;;;;;;;;;8.77;100.00;102603.56;5224732;28;20100;-73
2021/12/13 05:01:19;;;;;;;29.20;12.60;;;;;;;8.74;100.00;102594.91;5223685;28;19912;-73
2021/12/13 05:03:54;;;;;;;24.90;11.93;;;;;;;8.77;100.00;102600.03;5224480;28;20052;-73
2021/12/13 05:06:28;;;;;;;27.58;12.63;;;;;;;8.77;100.00;102605.38;5223417;28;20500;-74
2021/12/13 05:09:03;;;;;;;27.03;12.20;;;;;;;8.77;100.00;102600.03;5224049;28;20485;-73
2021/12/13 05:11:39;;;;;;;33.25;13.57;;;;;;;8.77;100.00;102608.91;5211820;28;20103;-73
2021/12/13 05:14:12;;;;;;;28.70;12.07;;;;;;;8.76;100.00;102609.03;5224077;28;20649;-73
2021/12/13 05:16:55;;;;;;;32.05;12.60;;;;;;;8.76;100.00;102611.69;5223801;28;20025;-73
2021/12/13 05:19:30;;;;;;;24.58;11.98;;;;;;;8.80;100.00;102608.69;5224203;28;20028;-73
2021/12/13 05:22:05;;;;;;;27.30;11.75;;;;;;;8.78;100.00;102607.06;5223887;28;20481;-73
2021/12/13 05:24:45;;;;;;;22.20;10.73;;;;;;;8.79;100.00;102609.66;5223959;28;20059;-73
2021/12/13 05:27:33;;;;;;;22.23;10.85;;;;;;;8.78;100.00;102615.09;5223592;28;20405;-73
2021/12/13 05:30:07;;;;;;;31.92;11.82;;;;;;;8.77;100.00;102616.06;5223870;28;20268;-73
2021/12/13 05:32:42;;;;;;;27.33;12.00;;;;;;;8.73;100.00;102614.59;5223482;28;20024;-73
2021/12/13 05:35:18;;;;;;;26.88;11.23;;;;;;;8.72;100.00;102607.53;5223170;28;20385;-73
2021/12/13 05:37:54;;;;;;;27.70;11.43;;;;;;;8.74;100.00;102616.31;5223918;28;20378;-73
2021/12/13 05:40:32;;;;;;;;;;;;;;;8.74;100.00;102609.16;5223959;28;20041;-73
2021/12/13 05:43:18;;;;;;;26.67;11.45;;;;;;;8.74;100.00;102606.47;5223363;28;20278;-73
2021/12/13 05:45:56;;;;;;;;;;;;;;;8.74;100.00;102610.97;5223615;28;20071;-73
2021/12/13 05:48:33;;;;;;;28.83;12.15;;;;;;;8.72;100.00;102610.22;5223024;28;19916;-73
2021/12/13 05:51:08;;;;;;;27.27;12.02;;;;;;;8.71;100.00;102600.47;5223522;28;20108;-73
2021/12/13 05:53:44;;;;;;;23.98;10.85;;;;;;;8.69;100.00;102600.59;5223036;28;20496;-73
2021/12/13 05:56:17;;;;;;;24.80;11.30;;;;;;;8.70;100.00;102593.41;5222777;28;20039;-73
2021/12/13 05:58:53;;;;;;;25.58;11.63;;;;;;;8.70;100.00;102598.78;5223367;28;20568;-73
2021/12/13 06:01:28;;;;;;;24.52;11.35;;;;;;;8.73;100.00;102591.34;5222857;28;20032;-73
2021/12/13 06:04:17;;;;;;;23.90;10.88;;;;;;;8.75;100.00;102593.94;5222876;28;20370;-73
2021/12/13 06:06:51;;;;;;;27.00;10.88;;;;;;;8.74;100.00;102598.44;5223157;28;20024;-73
2021/12/13 06:09:50;;;;;;;23.27;10.73;;;;;;;8.71;100.00;102597.78;5220974;28;20025;-73
2021/12/13 06:12:31;;;;;;;23.90;11.52;;;;;;;8.72;100.00;102594.16;5216055;28;20025;-73
2021/12/13 06:15:33;;;;;;;27.60;11.43;;;;;;;8.72;100.00;102594.16;5221771;28;20424;-73
2021/12/13 06:18:03;;;;;;;27.50;12.18;;;;;;;8.68;100.00;102595.34;5229662;28;20037;-73
2021/12/13 06:20:40;;;;;;;28.23;12.88;;;;;;;8.67;100.00;102610.53;5228037;28;20028;-73
2021/12/13 06:23:17;;;;;;;24.45;11.57;;;;;;;8.70;100.00;102609.47;5222822;28;20091;-72
2021/12/13 06:25:54;;;;;;;29.40;12.80;;;;;;;8.70;100.00;102604.97;5221658;28;20021;-73
2021/12/13 06:28:29;;;;;;;27.38;12.77;;;;;;;8.68;100.00;102609.56;5222639;28;20025;-73
2021/12/13 06:31:04;;;;;;;24.05;11.90;;;;;;;8.70;100.00;102609.47;5208102;28;20086;-73
2021/12/13 06:34:02;;;;;;;24.98;11.88;;;;;;;8.68;100.00;102617.59;5222120;28;20029;-74
2021/12/13 06:36:49;;;;;;;25.50;11.32;;;;;;;8.67;100.00;102626.59;5222004;28;20428;-74
2021/12/13 06:39:27;;;;;;;24.30;11.23;;;;;;;8.65;100.00;102620.50;5211217;28;20029;-73
2021/12/13 06:42:03;;;;;;;22.13;9.85;;;;;;;8.63;100.00;102618.88;5222019;28;20103;-74
2021/12/13 06:44:39;;;;;;;22.80;10.68;;;;;;;8.68;100.00;102619.41;5220583;28;20413;-73
2021/12/13 06:47:14;;;;;;;21.65;10.55;;;;;;;8.64;100.00;102625.97;5221076;28;20116;-72
2021/12/13 06:49:53;;;;;;;24.92;10.25;;;;;;;8.63;100.00;102626.91;5222365;28;20032;-76
2021/12/13 06:52:32;;;;;;;24.98;9.93;;;;;;;8.65;100.00;102628.53;5222150;28;20050;-72
2021/12/13 06:55:11;;;;;;;24.35;9.40;;;;;;;8.62;100.00;102638.59;5221274;28;20488;-73
2021/12/13 06:57:47;;;;;;;23.05;10.35;;;;;;;8.59;100.00;102634.31;5221957;28;20033;-73
2021/12/13 07:00:20;;;;;;;22.08;9.73;;;;;;;8.54;100.00;102626.63;5208722;28;20417;-73
2021/12/13 07:02:56;;;;;;;24.67;10.15;;;;;;;8.55;100.00;102624.81;5220337;28;20055;-73
2021/12/13 07:05:33;;;;;;;20.52;8.90;;;;;;;8.51;100.00;102629.50;5220921;28;20025;-73
2021/12/13 07:08:10;;;;;;;23.80;9.32;;;;;;;8.53;100.00;102624.03;5221723;28;20496;-73
2021/12/13 07:10:44;;;;;;;20.48;8.48;;;;;;;8.53;100.00;102627.59;5222007;28;20021;-73
2021/12/13 07:13:23;;;;;;;22.00;9.35;;;;;;;8.56;100.00;102631.88;5214302;28;20044;-74
2021/12/13 07:15:58;;;;;;;16.58;7.78;;;;;;;8.52;100.00;102633.03;5215141;28;20455;-73
2021/12/13 07:18:48;;;;;;;16.33;8.13;;;;;;;8.50;100.00;102624.28;5221153;28;20079;-73
2021/12/13 07:21:24;;;;;;;16.55;7.63;;;;;;;8.53;100.00;102629.41;5221561;28;20392;-74
2021/12/13 07:24:05;;;;;;;16.52;7.20;;;;;;;8.57;100.00;102629.06;5221744;28;20481;-73
2021/12/13 07:26:40;;;;;;;22.60;7.93;;;;;;;8.52;100.00;102627.69;5221506;28;20436;-74
2021/12/13 07:29:22;;;;;;;15.35;7.80;;;;;;;8.54;100.00;102634.66;5220377;28;20025;-73
2021/12/13 07:32:11;;;;;;;17.42;7.53;;;;;;;8.55;100.00;102636.38;5221297;28;20024;-72
2021/12/13 07:34:56;;;;;;;16.00;8.05;;;;;;;8.52;100.00;102636.56;5221157;28;20489;-74
2021/12/13 07:37:39;;;;;;;13.45;7.22;;;;;;;8.53;100.00;102640.97;5220236;28;20059;-73
2021/12/13 07:40:18;;;;;;;17.27;8.00;;;;;;;8.54;100.00;102644.50;5220994;28;20060;-73
2021/12/13 07:42:52;;;;;;;16.88;8.43;;;;;;;8.54;100.00;102640.00;5219571;28;20527;-73
2021/12/13 07:45:27;;;;;;;14.30;7.27;;;;;;;8.51;100.00;102650.91;5220871;28;20033;-74
2021/12/13 07:48:03;;;;;;;15.95;7.55;;;;;;;8.51;100.00;102642.88;5221083;28;20594;-74
2021/12/13 07:50:36;;;;;;;16.33;8.60;;;;;;;8.59;100.00;102652.22;5221622;28;20021;-73
2021/12/13 07:53:11;;;;;;;16.40;8.13;;;;;;;8.59;100.00;102653.06;5220768;28;20516;-73
2021/12/13 07:55:46;;;;;;;18.27;8.57;;;;;;;8.55;100.00;102657.75;5220760;28;20623;-75
2021/12/13 07:58:33;;;;;;;23.27;9.45;;;;;;;8.56;100.00;102661.28;5220777;28;20021;-74
2021/12/13 08:01:13;;;;;;;20.35;9.48;;;;;;;8.53;100.00;102666.84;5220902;28;20025;-74
2021/12/13 08:03:56;;;;;;;15.75;8.23;;;;;;;8.59;100.00;102665.59;5220943;28;20052;-75
2021/12/13 08:06:32;;;;;;;16.65;8.18;;;;;;;8.57;100.00;102663.84;5220894;28;20028;-74
2021/12/13 08:09:09;;;;;;;15.73;7.53;;;;;;;8.56;100.00;102654.13;5220064;28;20028;-74
2021/12/13 08:11:43;;;;;;;17.02;7.45;;;;;;;8.56;100.00;102659.47;5219708;28;20021;-75
2021/12/13 08:14:15;;;;;;;16.05;8.02;;;;;;;8.61;100.00;102660.97;5203109;28;20468;-75
2021/12/13 08:16:48;;;;;;;25.80;8.63;;;;;;;8.57;100.00;102669.19;5210943;28;20025;-74
2021/12/13 08:19:24;;;;;;;16.27;7.70;;;;;;;8.59;100.00;102662.91;5205046;28;20020;-74
2021/12/13 08:22:02;;;;;;;16.73;7.00;;;;;;;8.54;100.00;102664.09;5218288;28;20442;-73
2021/12/13 08:24:40;;;;;;;14.02;7.15;;;;;;;8.53;100.00;102670.41;5217378;28;20393;-74
2021/12/13 08:27:23;;;;;;;15.20;7.57;;;;;;;8.55;100.00;102676.50;5219194;28;20468;-74
2021/12/13 08:30:08;;;;;;;18.35;7.85;;;;;;;8.56;100.00;102672.84;5223097;28;20020;-75
2021/12/13 08:32:55;;;;;;;16.10;7.38;;;;;;;8.57;100.00;102676.38;5223166;28;20033;-75
2021/12/13 08:35:26;;;;;;;16.52;7.53;;;;;;;8.58;100.00;102670.03;5222730;28;20024;-75
2021/12/13 08:37:59;;;;;;;18.45;7.75;;;;;;;8.57;100.00;102671.03;5219762;28;20033;-74
2021/12/13 08:40:30;;;;;;;15.68;7.43;;;;;;;8.54;100.00;102674.78;5220183;28;20035;-75
2021/12/13 08:43:00;;;;;;;14.20;7.07;;;;;;;8.56;100.00;102672.84;5221776;28;20033;-74
2021/12/13 08:45:39;;;;;;;12.88;6.78;;;;;;;8.56;100.00;102667.50;5222235;28;20091;-74
2021/12/13 08:48:15;;;;;;;14.30;7.60;;;;;;;8.57;100.00;102677.22;5223502;28;20040;-74
2021/12/13 08:50:50;;;;;;;17.08;8.15;;;;;;;8.56;100.00;102672.84;5222981;28;20108;-74
2021/12/13 08:53:28;;;;;;;18.65;7.88;;;;;;;8.56;100.00;102682.69;5222980;28;20096;-73
2021/12/13 08:56:07;;;;;;;18.92;8.13;;;;;;;8.55;100.00;102681.84;5221765;28;20037;-73
2021/12/13 08:58:52;;;;;;;17.27;6.50;;;;;;;8.56;100.00;102675.53;5222738;28;20024;-73
2021/12/13 09:01:22;;;;;;;12.35;6.40;;;;;;;8.61;100.00;102682.38;5222497;28;20025;-74
2021/12/13 09:03:53;;;;;;;18.08;6.78;;;;;;;8.62;100.00;102673.38;5222174;28;20304;-74
2021/12/13 09:06:31;;;;;;;14.35;6.78;;;;;;;8.64;100.00;102683.00;5221106;28;20028;-74
2021/12/13 09:09:11;;;;;;;14.02;6.00;;;;;;;8.61;100.00;102680.53;5209229;28;20021;-74
2021/12/13 09:11:59;;;;;;;13.85;6.13;;;;;;;8.66;100.00;102686.44;5206442;28;20052;-74
2021/12/13 09:14:35;;;;;;;12.85;5.72;;;;;;;8.65;100.00;102679.38;5209008;28;20024;-72
2021/12/13 09:17:25;;;;;;;14.85;6.25;;;;;;;8.69;100.00;102690.72;5222286;28;20028;-71
2021/12/13 09:20:10;;;;;;;12.02;6.22;;;;;;;8.72;100.00;102685.13;5226775;28;20112;-73
2021/12/13 09:22:49;;;;;;;12.80;5.80;;;;;;;8.69;100.00;102690.72;5221961;28;20051;-72
2021/12/13 09:25:28;;;;;;;11.35;5.80;;;;;;;8.69;100.00;102694.25;5221627;28;20078;-74
2021/12/13 09:28:04;;;;;;;8.77;5.20;;;;;;;8.70;100.00;102705.81;5222692;28;20032;-76
2021/12/13 09:30:46;;;;;;;13.80;5.20;;;;;;;8.70;100.00;102708.47;5222141;28;20017;-75
2021/12/13 09:33:28;;;;;;;10.98;4.82;;;;;;;8.70;100.00;102711.16;5222173;28;20072;-75
2021/12/13 09:36:17;;;;;;;11.98;5.15;;;;;;;8.72;100.00;102711.88;5209206;28;20021;-76
2021/12/13 09:39:09;;;;;;;14.10;5.25;;;;;;;8.73;100.00;102717.13;5221011;28;20043;-74
2021/12/13 09:41:45;;;;;;;7.72;4.47;;;;;;;8.68;100.00;102715.75;5203608;28;20409;-75
2021/12/13 09:44:23;;;;;;;15.27;5.97;;;;;;;8.68;100.00;102716.59;5221299;28;20055;-75
2021/12/13 09:47:13;;;;;;;15.45;7.22;;;;;;;8.72;100.00;102720.78;5222322;28;20025;-75
2021/12/13 09:49:56;;;;;;;16.52;6.80;;;;;;;8.71;100.00;102724.41;5221503;28;20029;-74
2021/12/13 09:52:34;;;;;;;13.23;5.85;;;;;;;8.73;100.00;102730.50;5221703;28;20025;-75
2021/12/13 09:55:10;;;;;;;14.70;7.65;;;;;;;8.74;100.00;102734.91;5219298;28;20557;-76
2021/12/13 09:57:48;;;;;;;11.63;6.13;;;;;;;8.76;100.00;102729.44;5220251;28;20021;-76
2021/12/13 10:00:22;;;;;;;11.63;5.50;;;;;;;8.79;100.00;102732.78;5221342;28;20153;-75
2021/12/13 10:02:57;;;;;;;9.68;5.05;;;;;;;8.78;100.00;102714.97;5221067;28;20316;-77
2021/12/13 10:05:33;;;;;;;9.27;4.82;;;;;;;8.73;100.00;102722.47;5220109;28;20025;-76
2021/12/13 10:08:09;;;;;;;8.65;4.70;;;;;;;8.75;100.00;102719.72;5219472;28;20397;-76
2021/12/13 10:10:46;;;;;;;9.32;4.70;;;;;;;8.73;100.00;102721.63;5220683;28;20032;-76
2021/12/13 10:13:22;;;;;;;7.82;4.15;;;;;;;8.81;100.00;102724.63;5219819;28;20021;-75
2021/12/13 10:15:57;;;;;;;7.38;4.30;;;;;;;8.81;100.00;102727.28;5220461;28;20021;-76
2021/12/13 10:18:32;;;;;;;13.77;4.25;;;;;;;8.88;100.00;102730.38;5231422;28;20400;-75
2021/12/13 10:21:08;;;;;;;6.50;3.75;;;;;;;8.91;100.00;102720.31;5222579;28;20087;-76
2021/12/13 10:23:45;;;;;;;8.82;5.10;;;;;;;8.86;100.00;102719.78;5220791;28;20033;-75
2021/12/13 10:26:18;;;;;;;11.35;5.40;;;;;;;8.93;100.00;102720.19;5219699;28;20017;-75
2021/12/13 10:28:54;;;;;;;12.32;5.78;;;;;;;8.95;100.00;102724.50;5220727;28;20099;-75
2021/12/13 10:31:32;;;;;;;9.90;4.78;;;;;;;9.01;100.00;102717.84;5220805;28;20401;-75
2021/12/13 10:34:06;;;;;;;8.25;5.22;;;;;;;8.98;100.00;102724.25;5219316;28;20147;-76
2021/12/13 10:36:40;;;;;;;8.75;4.28;;;;;;;8.95;100.00;102726.31;5220414;28;20374;-76
2021/12/13 10:39:17;;;;;;;9.55;4.55;;;;;;;8.94;100.00;102729.97;5220522;28;20021;-75
2021/12/13 10:41:50;;;;;;;8.40;4.35;;;;;;;9.00;100.00;102724.16;5220252;28;20021;-75
2021/12/13 10:44:28;;;;;;;7.95;4.50;;;;;;;9.01;100.00;102723.19;5220321;28;20024;-73
2021/12/13 10:47:06;;;;;;;6.82;3.70;;;;;;;9.08;100.00;102724.44;5220810;28;20091;-75
2021/12/13 10:49:42;;;;;;;8.18;4.15;;;;;;;9.05;100.00;102730.91;5219217;28;20190;-75
2021/12/13 10:52:20;;;;;;;9.02;4.43;;;;;;;9.13;100.00;102729.47;5219565;28;20104;-75
2021/12/13 10:54:55;;;;;;;8.65;4.18;;;;;;;9.07;100.00;102725.44;5219623;28;20067;-75
2021/12/13 10:57:30;;;;;;;6.17;3.33;;;;;;;9.12;100.00;102723.28;5220790;28;20561;-75
2021/12/13 11:00:03;;;;;;;;;;;;;;;9.14;100.00;102729.38;5219793;28;20029;-75
2021/12/13 11:02:35;;;;;;;9.65;3.97;;;;;;;9.17;100.00;102722.94;5220319;28;20403;-76
2021/12/13 11:05:18;;;;;;;8.95;4.15;;;;;;;9.17;100.00;102718.44;5219466;28;20078;-75
2021/12/13 11:07:49;;;;;;;8.82;3.50;;;;;;;9.23;100.00;102723.34;5219968;28;20025;-75
2021/12/13 11:10:24;;;;;;;8.60;3.88;;;;;;;9.20;100.00;102723.59;5220328;28;20025;-75
2021/12/13 11:12:56;;;;;;;9.48;3.42;;;;;;;9.15;100.00;102723.06;5217696;28;20028;-75
2021/12/13 11:15:32;;;;;;;7.60;3.60;;;;;;;9.16;100.00;102722.09;5211442;28;20029;-74
2021/12/13 11:18:11;;;;;;;9.10;4.40;;;;;;;9.18;100.00;102711.25;5220233;28;20444;-74
2021/12/13 11:20:46;;;;;;;10.40;4.82;;;;;;;9.23;100.00;102711.78;5219974;28;20027;-76
2021/12/13 11:23:19;;;;;;;12.20;5.35;;;;;;;9.26;100.00;102706.22;5220145;28;20037;-74
2021/12/13 11:25:55;;;;;;;12.15;4.00;;;;;;;9.28;100.00;102698.91;5218771;28;20033;-74
2021/12/13 11:28:29;;;;;;;6.28;3.75;;;;;;;9.32;100.00;102709.28;5220022;28;20577;-75
2021/12/13 11:31:11;;;;;;;9.43;4.88;;;;;;;9.30;100.00;102715.72;5219754;28;20036;-76
2021/12/13 11:33:42;;;;;;;11.85;5.43;;;;;;;9.29;100.00;102708.66;5219554;28;20112;-74
2021/12/13 11:36:47;;;;;;;10.65;5.88;;;;;;;9.23;100.00;102699.25;5218985;28;20108;-75
2021/12/13 11:39:28;;;;;;;6.88;3.45;;;;;;;9.29;100.00;102706.84;5222091;28;20107;-74
2021/12/13 11:42:21;;;;;;;5.60;3.70;;;;;;;9.26;100.00;102701.69;5220109;28;20381;-74
2021/12/13 11:45:13;;;;;;;6.13;3.47;;;;;;;9.28;100.00;102693.53;5218817;28;20037;-74
2021/12/13 11:48:01;;;;;;;6.85;4.07;;;;;;;9.30;100.00;102696.97;5219990;28;20557;-74
2021/12/13 11:51:14;;;;;;;7.60;3.85;;;;;;;9.33;100.00;102707.44;5217261;28;20478;-74
2021/12/13 11:53:59;;;;;;;10.18;5.65;;;;;;;9.30;100.00;102702.34;5218639;28;20021;-74
2021/12/13 11:57:13;;;;;;;10.52;4.18;;;;;;;9.30;100.00;102702.34;5218938;28;20037;-75
2021/12/13 11:59:56;;;;;;;5.35;3.20;;;;;;;9.32;100.00;102695.88;5218422;28;20033;-75
2021/12/13 12:02:38;;;;;;;6.22;2.47;;;;;;;9.29;100.00;102698.81;5219884;28;20485;-74
2021/12/13 12:05:41;;;;;;;8.07;4.68;;;;;;;9.33;100.00;102704.78;5221985;28;20040;-74
2021/12/13 12:08:25;;;;;;;5.93;3.03;;;;;;;9.34;100.00;102703.84;5222534;28;20053;-74